Time;durP1;ratioP1;P1;durP2;ratioP2;P2;SDS_P1;SDS_P2;PMS_P1;PMS_P2;Temp;Humidity;BMP_temperature;BMP_pressure;BME280_temperature;BME280_humidity;BME280_pressure;Samples;Min_cycle;Max_cycle;Signal;HPM_P1;HPM_P2
2020/12/24 00:00:14;;;;;;;19.92;2.70;;;6.00;94.70;;;;;;4970380;28;20039;-85
2020/12/24 00:02:42;;;;;;;16.48;2.55;;;6.40;95.00;;;;;;4989089;28;20049;-82
2020/12/24 00:05:08;;;;;;;15.05;2.30;;;6.00;95.20;;;;;;4976676;28;20051;-79
2020/12/24 00:07:38;;;;;;;15.52;2.80;;;6.00;95.40;;;;;;4984176;28;20062;-76
2020/12/24 00:10:05;;;;;;;16.73;2.13;;;5.90;94.90;;;;;;4991460;28;20118;-83
2020/12/24 00:12:31;;;;;;;11.65;1.55;;;5.80;94.70;;;;;;4989950;28;20046;-83
2020/12/24 00:15:00;;;;;;;8.90;1.70;;;5.90;94.70;;;;;;4959352;28;20038;-78
2020/12/24 00:17:26;;;;;;;11.18;1.90;;;5.90;94.40;;;;;;4990147;28;20034;-84
2020/12/24 00:19:52;;;;;;;16.55;1.88;;;5.90;94.40;;;;;;4976175;28;20119;-78
2020/12/24 00:22:19;;;;;;;8.98;1.83;;;5.90;94.40;;;;;;4958806;28;20055;-83
2020/12/24 00:24:45;;;;;;;12.20;1.80;;;5.90;94.30;;;;;;4989912;28;20042;-83
2020/12/24 00:27:11;;;;;;;9.10;1.85;;;5.90;94.40;;;;;;4974475;28;20098;-83
2020/12/24 00:29:39;;;;;;;11.23;1.80;;;6.70;95.00;;;;;;4976582;28;20039;-83
2020/12/24 00:32:05;;;;;;;18.13;1.75;;;7.10;94.50;;;;;;4976325;28;20043;-78
2020/12/24 00:34:31;;;;;;;12.13;1.70;;;4.90;94.60;;;;;;4974526;28;20055;-78
2020/12/24 00:36:58;;;;;;;7.30;1.38;;;5.80;94.70;;;;;;4974595;28;20442;-76
2020/12/24 00:39:27;;;;;;;17.25;2.40;;;5.80;94.60;;;;;;4974569;28;20647;-76
2020/12/24 00:41:54;;;;;;;9.25;1.80;;;5.80;94.90;;;;;;4990357;28;20066;-76
2020/12/24 00:44:21;;;;;;;12.73;2.45;;;5.90;94.70;;;;;;4975614;28;20066;-76
2020/12/24 00:46:48;;;;;;;12.40;1.80;;;5.80;94.30;;;;;;4974359;28;20491;-77
2020/12/24 00:49:14;;;;;;;11.60;1.58;;;5.80;94.20;;;;;;4967770;28;20114;-77
2020/12/24 00:51:39;;;;;;;5.85;1.50;;;5.80;94.30;;;;;;4989730;28;20118;-77
2020/12/24 00:54:05;;;;;;;8.80;2.20;;;5.80;94.10;;;;;;4990659;28;20499;-77
2020/12/24 00:56:31;;;;;;;8.75;1.48;;;5.80;94.00;;;;;;4975565;28;20050;-78
2020/12/24 00:58:57;;;;;;;11.90;1.58;;;6.00;94.30;;;;;;4974779;28;20085;-77
2020/12/24 01:01:22;;;;;;;12.20;1.85;;;6.70;94.20;;;;;;4974334;28;20515;-77
2020/12/24 01:03:48;;;;;;;11.93;1.48;;;5.70;93.80;;;;;;4976293;28;20049;-77
2020/12/24 01:06:14;;;;;;;10.07;1.48;;;5.80;94.00;;;;;;4973623;28;20047;-77
2020/12/24 01:08:40;;;;;;;5.90;1.48;;;5.80;94.00;;;;;;4968646;28;20467;-76
2020/12/24 01:11:06;;;;;;;7.53;1.50;;;5.70;93.90;;;;;;4989945;28;20066;-76
2020/12/24 01:13:32;;;;;;;10.15;1.60;;;5.70;94.00;;;;;;4990378;28;20388;-77
2020/12/24 01:15:58;;;;;;;7.22;1.10;;;5.70;93.90;;;;;;4973276;28;20042;-77
2020/12/24 01:18:23;;;;;;;7.30;1.50;;;5.80;93.80;;;;;;4965605;28;20055;-77
2020/12/24 01:20:49;;;;;;;6.32;1.65;;;5.70;93.50;;;;;;4975121;28;20046;-78
2020/12/24 01:23:15;;;;;;;4.18;1.00;;;5.70;93.00;;;;;;4974329;28;20120;-78
2020/12/24 01:25:41;;;;;;;7.07;1.38;;;6.20;93.20;;;;;;4964552;28;20487;-77
2020/12/24 01:28:07;;;;;;;6.05;1.20;;;5.70;93.00;;;;;;4969732;28;20122;-77
2020/12/24 01:30:33;;;;;;;5.57;1.27;;;6.90;92.60;;;;;;4989568;28;20146;-77
2020/12/24 01:32:59;;;;;;;2.78;0.75;;;5.60;92.00;;;;;;4977998;28;20071;-82
2020/12/24 01:35:24;;;;;;;6.07;1.00;;;6.20;91.90;;;;;;4975172;28;20027;-83
2020/12/24 01:37:50;;;;;;;8.13;1.40;;;5.60;91.40;;;;;;4989798;28;20043;-82
2020/12/24 01:40:17;;;;;;;5.53;1.20;;;5.60;91.80;;;;;;4973024;28;20046;-82
2020/12/24 01:42:43;;;;;;;5.55;1.48;;;5.60;91.60;;;;;;4974974;28;20090;-82
2020/12/24 01:45:09;;;;;;;9.77;1.70;;;5.60;91.50;;;;;;4973525;28;20041;-82
2020/12/24 01:47:35;;;;;;;4.30;1.33;;;5.50;91.60;;;;;;4967493;28;20106;-82
2020/12/24 01:50:00;;;;;;;10.05;1.75;;;6.60;91.90;;;;;;4972409;28;20057;-78
2020/12/24 01:53:10;;;;;;;6.25;1.23;;;5.50;92.00;;;;;;4973203;28;20066;-78
2020/12/24 01:55:36;;;;;;;6.35;1.52;;;5.50;92.10;;;;;;4974048;28;20124;-83
2020/12/24 01:58:02;;;;;;;8.63;1.30;;;5.50;92.60;;;;;;4989313;28;20075;-83
2020/12/24 02:00:28;;;;;;;9.88;1.58;;;5.50;92.30;;;;;;4974360;28;20403;-83
2020/12/24 02:02:53;;;;;;;8.90;1.20;;;5.50;92.10;;;;;;4974432;28;20046;-83
2020/12/24 02:05:19;;;;;;;7.07;1.45;;;5.40;92.10;;;;;;4974178;28;20058;-83
2020/12/24 02:07:45;;;;;;;5.40;1.20;;;5.50;92.30;;;;;;4973569;28;20046;-82
2020/12/24 02:10:11;;;;;;;9.32;1.17;;;5.40;92.10;;;;;;4967774;28;20502;-82
2020/12/24 02:12:37;;;;;;;5.43;1.20;;;5.40;92.00;;;;;;4988528;28;20110;-82
2020/12/24 02:15:03;;;;;;;5.13;1.20;;;5.30;92.00;;;;;;4988845;28;20039;-82
2020/12/24 02:17:29;;;;;;;7.43;1.25;;;5.30;92.30;;;;;;4972489;28;20090;-82
2020/12/24 02:19:55;;;;;;;7.95;1.20;;;5.30;92.50;;;;;;4986599;28;20047;-82
2020/12/24 02:22:21;;;;;;;6.43;1.20;;;5.30;92.70;;;;;;4965180;28;20039;-82
2020/12/24 02:24:47;;;;;;;5.97;1.25;;;5.70;93.40;;;;;;4958135;28;20035;-82
2020/12/24 02:27:13;;;;;;;5.32;1.27;;;6.20;93.40;;;;;;4988949;28;20034;-82
2020/12/24 02:29:38;;;;;;;6.15;1.20;;;5.70;93.00;;;;;;4987648;28;20046;-82
2020/12/24 02:32:04;;;;;;;8.27;1.17;;;5.20;92.90;;;;;;4983758;28;20105;-82
2020/12/24 02:34:30;;;;;;;5.22;1.25;;;5.20;92.70;;;;;;4985329;28;20097;-82
2020/12/24 02:36:57;;;;;;;4.50;1.30;;;5.90;93.60;;;;;;4971322;28;20031;-82
2020/12/24 02:39:26;;;;;;;7.72;1.23;;;5.20;93.50;;;;;;4973962;28;20038;-84
2020/12/24 02:41:52;;;;;;;4.03;1.40;;;5.20;93.00;;;;;;4973888;28;20069;-83
2020/12/24 02:44:18;;;;;;;5.72;1.38;;;5.50;92.90;;;;;;4973973;28;20034;-82
2020/12/24 02:46:44;;;;;;;3.92;1.10;;;5.00;92.30;;;;;;4988688;28;20039;-83
2020/12/24 02:49:10;;;;;;;5.30;1.23;;;4.90;92.20;;;;;;4972009;28;20035;-83
2020/12/24 02:51:35;;;;;;;4.38;1.10;;;4.90;92.60;;;;;;4988882;28;20039;-82
2020/12/24 02:54:01;;;;;;;7.78;1.25;;;4.90;93.00;;;;;;4972334;28;20531;-81
2020/12/24 02:56:27;;;;;;;6.70;1.23;;;4.90;93.40;;;;;;4972693;28;20122;-77
2020/12/24 02:58:55;;;;;;;3.90;1.30;;;4.90;93.10;;;;;;4967455;28;20429;-77
2020/12/24 03:01:21;;;;;;;8.15;1.42;;;4.80;93.20;;;;;;4973475;28;20069;-77
2020/12/24 03:03:47;;;;;;;3.42;1.25;;;5.80;93.80;;;;;;4956256;28;20052;-77
2020/12/24 03:06:12;;;;;;;6.53;1.58;;;4.80;93.10;;;;;;4973431;28;20046;-77
2020/12/24 03:08:38;;;;;;;3.63;1.00;;;4.90;93.30;;;;;;4983826;28;20101;-78
2020/12/24 03:11:05;;;;;;;4.07;1.13;;;4.90;93.40;;;;;;4962562;28;20031;-78
2020/12/24 03:13:31;;;;;;;8.75;1.52;;;4.90;93.70;;;;;;4983008;28;20030;-77
2020/12/24 03:15:57;;;;;;;8.05;1.30;;;4.90;93.80;;;;;;4977574;28;20065;-78
2020/12/24 03:18:23;;;;;;;5.43;1.23;;;4.90;93.70;;;;;;4971664;28;20037;-78
2020/12/24 03:20:48;;;;;;;5.20;1.40;;;5.10;93.50;;;;;;4969955;28;20147;-77
2020/12/24 03:23:14;;;;;;;7.85;1.73;;;4.90;93.30;;;;;;4973308;28;20031;-77
2020/12/24 03:25:40;;;;;;;8.05;1.38;;;4.90;93.70;;;;;;4977058;28;20458;-77
2020/12/24 03:28:06;;;;;;;2.67;1.08;;;4.90;93.70;;;;;;4992125;28;20035;-77
2020/12/24 03:30:31;;;;;;;9.88;1.95;;;4.90;94.30;;;;;;4977039;28;20115;-77
2020/12/24 03:32:57;;;;;;;8.35;1.40;;;5.00;94.00;;;;;;4976912;28;20093;-75
2020/12/24 03:35:23;;;;;;;6.75;1.67;;;5.00;94.20;;;;;;4976095;28;20090;-75
2020/12/24 03:37:52;;;;;;;5.38;1.52;;;5.00;94.40;;;;;;4975211;28;20041;-76
2020/12/24 03:40:18;;;;;;;7.15;1.70;;;5.00;94.40;;;;;;4974207;28;20431;-75
2020/12/24 03:42:44;;;;;;;8.57;1.70;;;4.90;94.50;;;;;;4975540;28;20035;-75
2020/12/24 03:45:10;;;;;;;9.10;1.58;;;5.10;94.60;;;;;;4976541;28;20037;-75
2020/12/24 03:47:39;;;;;;;5.72;1.55;;;5.20;94.50;;;;;;4976767;28;20049;-78
2020/12/24 03:50:05;;;;;;;6.55;1.75;;;5.20;94.60;;;;;;4946400;28;20047;-78
2020/12/24 03:52:34;;;;;;;6.53;1.58;;;5.80;94.30;;;;;;4976581;28;20031;-78
2020/12/24 03:55:00;;;;;;;4.75;1.55;;;5.20;94.40;;;;;;4972593;28;20070;-78
2020/12/24 03:57:29;;;;;;;8.98;1.63;;;5.20;94.60;;;;;;4975425;28;20031;-78
2020/12/24 03:59:55;;;;;;;5.05;1.58;;;5.20;94.40;;;;;;4974954;28;20333;-78
2020/12/24 04:02:21;;;;;;;5.85;1.67;;;6.30;94.70;;;;;;4976158;28;20054;-78
2020/12/24 04:04:47;;;;;;;4.25;1.60;;;5.70;94.80;;;;;;4991394;28;20038;-78
2020/12/24 04:07:12;;;;;;;8.05;1.50;;;5.30;94.80;;;;;;4973266;28;20031;-78
2020/12/24 04:09:38;;;;;;;6.78;1.55;;;6.00;95.00;;;;;;4991133;28;20114;-78
2020/12/24 04:12:04;;;;;;;6.03;1.70;;;5.40;94.70;;;;;;4976159;28;20066;-78
2020/12/24 04:14:30;;;;;;;7.72;1.80;;;5.40;94.40;;;;;;4973777;28;20031;-78
2020/12/24 04:16:56;;;;;;;6.25;1.67;;;5.40;94.40;;;;;;4973897;28;20031;-78
2020/12/24 04:19:22;;;;;;;5.90;1.48;;;6.20;94.50;;;;;;4964696;28;20035;-78
2020/12/24 04:21:51;;;;;;;4.93;1.42;;;5.40;94.20;;;;;;4973263;28;20054;-77
2020/12/24 04:24:17;;;;;;;3.38;1.20;;;5.40;94.50;;;;;;4976025;28;20075;-77
2020/12/24 04:26:44;;;;;;;4.30;1.35;;;5.40;95.00;;;;;;4976095;28;20070;-77
2020/12/24 04:29:15;;;;;;;6.80;1.63;;;5.40;95.00;;;;;;4964526;28;20032;-78
2020/12/24 04:31:44;;;;;;;5.03;1.45;;;5.40;94.70;;;;;;4976054;28;20435;-77
2020/12/24 04:34:10;;;;;;;9.45;1.77;;;5.40;94.80;;;;;;4960566;28;20114;-76
2020/12/24 04:36:38;;;;;;;8.18;1.73;;;5.40;94.70;;;;;;4990373;28;20507;-76
2020/12/24 04:39:05;;;;;;;10.50;1.80;;;5.40;95.00;;;;;;4974470;28;20140;-77
2020/12/24 04:41:31;;;;;;;4.90;1.38;;;5.40;94.90;;;;;;4974304;28;20042;-77
2020/12/24 04:43:58;;;;;;;6.82;1.50;;;6.40;95.10;;;;;;4975784;28;20053;-77
2020/12/24 04:46:27;;;;;;;5.03;1.35;;;6.70;95.40;;;;;;4972508;28;20475;-77
2020/12/24 04:48:56;;;;;;;4.68;1.80;;;5.40;94.90;;;;;;4964730;28;20035;-77
2020/12/24 04:51:25;;;;;;;6.93;1.88;;;5.40;94.80;;;;;;4959543;28;20082;-77
2020/12/24 04:53:52;;;;;;;4.40;1.35;;;5.40;94.70;;;;;;4972461;28;20094;-82
2020/12/24 04:56:18;;;;;;;7.45;1.50;;;5.30;94.50;;;;;;4976010;28;20484;-82
2020/12/24 04:58:44;;;;;;;7.28;1.60;;;5.30;94.60;;;;;;4975392;28;20042;-82
2020/12/24 05:01:15;;;;;;;5.80;1.67;;;5.50;94.50;;;;;;4971512;28;20063;-83
2020/12/24 05:03:41;;;;;;;6.38;1.83;;;5.40;94.40;;;;;;4971277;28;20077;-83
2020/12/24 05:06:13;;;;;;;9.85;2.15;;;5.40;94.80;;;;;;4975529;28;20061;-83
2020/12/24 05:08:39;;;;;;;5.35;1.52;;;5.40;94.80;;;;;;4966977;28;20094;-84
2020/12/24 05:11:07;;;;;;;7.03;1.90;;;5.40;94.90;;;;;;4975294;28;20479;-84
2020/12/24 05:13:39;;;;;;;7.18;2.60;;;5.90;94.90;;;;;;4988270;28;20046;-84
2020/12/24 05:16:15;;;;;;;4.55;1.80;;;5.40;94.70;;;;;;4951067;28;20039;-83
2020/12/24 05:18:41;;;;;;;;;;;5.40;94.50;;;;;;4974649;28;20407;-84
2020/12/24 05:21:07;;;;;;;5.88;1.80;;;6.80;94.90;;;;;;4989957;28;19924;-83
2020/12/24 05:23:33;;;;;;;9.18;1.95;;;5.40;94.40;;;;;;4984942;28;20121;-84
2020/12/24 05:25:59;;;;;;;5.35;1.80;;;5.50;94.40;;;;;;4975964;28;20041;-84
2020/12/24 05:28:26;;;;;;;4.85;1.30;;;5.50;94.50;;;;;;4968839;28;20036;-84
2020/12/24 05:30:53;;;;;;;8.65;1.60;;;5.50;94.30;;;;;;4970712;28;20043;-84
2020/12/24 05:33:29;;;;;;;6.75;1.77;;;5.50;94.20;;;;;;4975316;28;20042;-83
2020/12/24 05:36:33;;;;;;;6.63;1.60;;;5.50;94.00;;;;;;4973030;28;20395;-83
2020/12/24 05:38:59;;;;;;;6.85;2.22;;;5.50;94.60;;;;;;4962868;28;20051;-84
2020/12/24 05:41:32;;;;;;;7.57;2.35;;;5.60;94.80;;;;;;4953528;28;20535;-84
2020/12/24 05:44:05;;;;;;;5.72;1.95;;;5.40;94.70;;;;;;4971305;28;20093;-84
2020/12/24 05:46:45;;;;;;;9.25;2.33;;;5.50;94.80;;;;;;4971990;28;20057;-84
2020/12/24 05:49:21;;;;;;;5.85;2.08;;;5.50;94.90;;;;;;4974717;28;20042;-84
2020/12/24 05:51:58;;;;;;;9.95;2.60;;;5.40;94.90;;;;;;4973885;28;20045;-84
2020/12/24 05:54:25;;;;;;;7.72;2.20;;;5.40;95.50;;;;;;4968494;28;20031;-84
2020/12/24 05:56:53;;;;;;;7.30;2.13;;;5.40;95.20;;;;;;4970227;28;20039;-84
2020/12/24 05:59:27;;;;;;;5.32;2.00;;;5.40;95.20;;;;;;4997298;28;20065;-84
2020/12/24 06:02:00;;;;;;;4.15;1.90;;;5.40;95.30;;;;;;4977554;28;20042;-85
2020/12/24 06:04:58;;;;;;;6.38;2.30;;;5.40;95.40;;;;;;4994278;28;20139;-86
2020/12/24 06:07:27;;;;;;;5.35;2.00;;;5.40;95.30;;;;;;4969120;28;20042;-80
2020/12/24 06:09:53;;;;;;;7.00;2.10;;;5.80;95.50;;;;;;4984495;28;20077;-80
2020/12/24 06:12:24;;;;;;;5.35;2.33;;;6.70;95.90;;;;;;4977621;28;20066;-84
2020/12/24 06:14:52;;;;;;;6.28;1.88;;;5.40;95.50;;;;;;4973904;28;20035;-84
2020/12/24 06:17:22;;;;;;;2.97;2.03;;;5.40;95.40;;;;;;4973823;28;20128;-84
2020/12/24 06:19:48;;;;;;;9.63;2.88;;;6.50;95.70;;;;;;4974538;28;20043;-85
2020/12/24 06:22:15;;;;;;;8.13;2.50;;;5.50;95.40;;;;;;4973985;28;20038;-85
2020/12/24 06:24:44;;;;;;;6.05;2.17;;;5.50;95.40;;;;;;4980770;28;20526;-85
2020/12/24 06:27:23;;;;;;;9.63;2.35;;;5.50;95.30;;;;;;4981644;28;20038;-85
2020/12/24 06:29:55;;;;;;;3.70;1.80;;;5.50;95.00;;;;;;4963958;28;20589;-84
2020/12/24 06:32:22;;;;;;;4.32;1.83;;;5.50;95.00;;;;;;4974102;28;20094;-83
2020/12/24 06:34:48;;;;;;;11.18;2.20;;;5.40;94.90;;;;;;4975143;28;20043;-83
2020/12/24 06:37:17;;;;;;;7.90;2.08;;;5.40;95.10;;;;;;4971357;28;20679;-83
2020/12/24 06:39:51;;;;;;;7.65;1.95;;;5.40;95.10;;;;;;4972483;28;20090;-83
2020/12/24 06:42:35;;;;;;;5.90;2.30;;;5.40;95.10;;;;;;4974289;28;20043;-84
2020/12/24 06:45:03;;;;;;;8.57;2.38;;;5.50;95.20;;;;;;4985301;28;20035;-84
2020/12/24 06:47:35;;;;;;;7.97;2.28;;;5.50;95.30;;;;;;4974062;28;20479;-85
2020/12/24 06:50:01;;;;;;;11.40;2.20;;;6.10;95.30;;;;;;4971359;28;20059;-82
2020/12/24 06:52:31;;;;;;;6.53;1.80;;;6.10;95.50;;;;;;4967242;28;20066;-82
2020/12/24 06:55:16;;;;;;;8.93;2.05;;;5.40;95.10;;;;;;4967656;28;20046;-82
2020/12/24 06:57:44;;;;;;;12.38;2.20;;;5.40;95.10;;;;;;4959589;28;20428;-80
2020/12/24 07:00:20;;;;;;;9.07;3.00;;;5.50;95.30;;;;;;4987447;28;20069;-79
2020/12/24 07:02:47;;;;;;;9.73;2.05;;;5.40;95.20;;;;;;4976214;28;20039;-79
2020/12/24 07:05:41;;;;;;;10.38;2.25;;;5.50;95.30;;;;;;4972633;28;20465;-79
2020/12/24 07:08:29;;;;;;;14.82;2.40;;;5.50;95.20;;;;;;4977502;28;20039;-80
2020/12/24 07:10:55;;;;;;;10.80;2.38;;;5.50;95.20;;;;;;4976014;28;20035;-80
2020/12/24 07:13:35;;;;;;;8.68;2.28;;;5.50;95.30;;;;;;4977428;28;20046;-81
2020/12/24 07:16:02;;;;;;;12.43;2.13;;;5.50;95.20;;;;;;4977614;28;20043;-80
2020/12/24 07:18:30;;;;;;;10.50;2.25;;;5.50;95.30;;;;;;4988557;28;20042;-79
2020/12/24 07:21:00;;;;;;;10.13;2.30;;;5.50;95.30;;;;;;4979883;28;20043;-80
2020/12/24 07:23:30;;;;;;;13.60;2.45;;;5.60;95.30;;;;;;4977429;28;20038;-80
2020/12/24 07:26:01;;;;;;;14.95;2.85;;;5.50;95.30;;;;;;4975368;28;20058;-78
2020/12/24 07:28:29;;;;;;;10.48;2.95;;;5.50;95.60;;;;;;4974667;28;20046;-73
2020/12/24 07:30:59;;;;;;;14.85;2.92;;;5.60;95.30;;;;;;4975266;28;20039;-81
2020/12/24 07:33:26;;;;;;;11.40;2.78;;;5.60;95.30;;;;;;4976409;28;20046;-79
2020/12/24 07:35:55;;;;;;;14.30;3.45;;;5.70;95.40;;;;;;4977093;28;20113;-80
2020/12/24 07:38:22;;;;;;;14.52;3.20;;;5.60;95.40;;;;;;4976820;28;20038;-81
2020/12/24 07:40:48;;;;;;;17.42;2.78;;;5.60;95.40;;;;;;4977048;28;20047;-81
2020/12/24 07:43:17;;;;;;;7.22;2.42;;;5.60;95.20;;;;;;4991679;28;20097;-80
2020/12/24 07:45:44;;;;;;;10.80;2.60;;;5.90;95.30;;;;;;4971021;28;20071;-81
2020/12/24 07:48:11;;;;;;;14.05;2.88;;;5.60;95.20;;;;;;4965911;28;20063;-84
2020/12/24 07:50:37;;;;;;;12.63;2.22;;;5.70;95.10;;;;;;4978536;28;20039;-81
2020/12/24 07:53:03;;;;;;;21.10;2.75;;;5.70;95.00;;;;;;4973259;28;20443;-84
2020/12/24 07:55:28;;;;;;;17.27;2.20;;;7.00;94.60;;;;;;4975161;28;20038;-82
2020/12/24 07:58:11;;;;;;;19.25;2.17;;;5.80;94.10;;;;;;4989316;28;20041;-82
2020/12/24 08:00:45;;;;;;;26.98;2.90;;;5.90;93.70;;;;;;4973956;28;20039;-81
2020/12/24 08:03:14;;;;;;;15.55;3.20;;;6.60;93.50;;;;;;4976814;28;20039;-82
2020/12/24 08:05:49;;;;;;;13.65;2.47;;;6.00;93.60;;;;;;4976578;28;20510;-82
2020/12/24 08:08:22;;;;;;;28.02;3.65;;;5.90;93.00;;;;;;4975893;28;20038;-81
2020/12/24 08:10:48;;;;;;;18.50;2.53;;;6.00;93.20;;;;;;4958887;28;20117;-81
2020/12/24 08:13:14;;;;;;;17.52;2.20;;;5.90;92.90;;;;;;4969989;28;20475;-83
2020/12/24 08:15:42;;;;;;;15.90;2.20;;;6.00;92.60;;;;;;4976260;28;20089;-80
2020/12/24 08:18:11;;;;;;;18.63;2.15;;;5.90;92.40;;;;;;4991432;28;20045;-81
2020/12/24 08:20:48;;;;;;;13.45;2.17;;;5.90;92.70;;;;;;4971356;28;20038;-80
2020/12/24 08:23:38;;;;;;;15.98;2.78;;;5.90;91.90;;;;;;4976289;28;20084;-80
2020/12/24 08:26:05;;;;;;;14.32;2.53;;;6.00;92.50;;;;;;4975994;28;20035;-79
2020/12/24 08:28:33;;;;;;;16.52;2.70;;;5.90;92.30;;;;;;4976124;28;20043;-79
2020/12/24 08:31:00;;;;;;;18.92;2.50;;;5.90;92.10;;;;;;4975979;28;20149;-80
2020/12/24 08:33:26;;;;;;;28.27;3.13;;;5.90;92.10;;;;;;4976238;28;20059;-81
2020/12/24 08:35:52;;;;;;;16.67;2.63;;;6.00;92.30;;;;;;4975838;28;20065;-79
2020/12/24 08:38:19;;;;;;;14.52;2.22;;;6.00;92.10;;;;;;4976114;28;20460;-80
2020/12/24 08:40:46;;;;;;;17.48;2.13;;;6.00;91.50;;;;;;4976322;28;20403;-81
2020/12/24 08:43:13;;;;;;;14.25;2.13;;;6.00;91.80;;;;;;4991039;28;20034;-82
2020/12/24 08:45:48;;;;;;;17.85;2.42;;;6.00;91.60;;;;;;4976222;28;20395;-80
2020/12/24 08:48:33;;;;;;;10.20;1.77;;;6.10;91.30;;;;;;4975720;28;20042;-79
2020/12/24 08:50:59;;;;;;;9.57;1.48;;;6.10;91.50;;;;;;4975891;28;20038;-83
2020/12/24 08:53:28;;;;;;;13.65;1.70;;;6.10;91.40;;;;;;4975711;28;20042;-73
2020/12/24 08:55:54;;;;;;;9.93;1.52;;;6.10;91.30;;;;;;4990608;28;20045;-73
2020/12/24 08:58:20;;;;;;;12.30;1.58;;;6.20;91.20;;;;;;4990731;28;20065;-71
2020/12/24 09:00:46;;;;;;;11.00;1.60;;;6.20;91.30;;;;;;4975314;28;20071;-78
2020/12/24 09:03:25;;;;;;;8.13;1.30;;;6.20;90.90;;;;;;4975435;28;20403;-78
2020/12/24 09:05:52;;;;;;;11.02;1.55;;;6.20;90.80;;;;;;4974133;28;20075;-79
2020/12/24 09:08:23;;;;;;;9.38;2.17;;;6.10;91.30;;;;;;4974833;28;20089;-80
2020/12/24 09:10:48;;;;;;;14.10;1.48;;;6.30;91.40;;;;;;4973203;28;20039;-80
2020/12/24 09:13:14;;;;;;;7.78;1.20;;;6.30;91.40;;;;;;4974052;28;20053;-80
2020/12/24 09:15:40;;;;;;;12.85;1.75;;;6.30;91.40;;;;;;4975016;28;20423;-76
2020/12/24 09:18:07;;;;;;;10.43;1.48;;;6.40;91.50;;;;;;4957901;28;20039;-76
2020/12/24 09:20:34;;;;;;;11.18;2.25;;;6.40;91.60;;;;;;4973784;28;20108;-76
2020/12/24 09:23:20;;;;;;;9.93;1.45;;;7.00;91.70;;;;;;4990033;28;20266;-76
2020/12/24 09:25:46;;;;;;;14.57;1.90;;;6.50;91.10;;;;;;4974789;28;20051;-76
2020/12/24 09:28:21;;;;;;;11.77;1.40;;;6.50;90.70;;;;;;4994042;28;20481;-75
2020/12/24 09:30:47;;;;;;;12.27;1.48;;;6.60;91.00;;;;;;4979761;28;20050;-75
2020/12/24 09:33:13;;;;;;;8.80;1.80;;;6.50;90.80;;;;;;4974672;28;20066;-76
2020/12/24 09:35:39;;;;;;;16.55;2.22;;;6.50;90.10;;;;;;4975229;28;20611;-76
2020/12/24 09:38:05;;;;;;;14.07;1.60;;;6.60;90.70;;;;;;4957326;28;20038;-76
2020/12/24 09:40:31;;;;;;;13.00;1.40;;;6.60;90.10;;;;;;4973458;28;20091;-76
2020/12/24 09:42:56;;;;;;;8.20;1.80;;;6.60;89.40;;;;;;4974277;28;20038;-74
2020/12/24 09:45:23;;;;;;;13.50;1.92;;;6.60;89.50;;;;;;4971674;28;20031;-77
2020/12/24 09:47:50;;;;;;;9.95;2.13;;;6.60;89.30;;;;;;4974127;28;20684;-76
2020/12/24 09:50:19;;;;;;;10.77;1.95;;;6.60;90.10;;;;;;4974226;28;20034;-76
2020/12/24 09:52:45;;;;;;;11.30;1.67;;;6.60;88.30;;;;;;4972879;28;20039;-76
2020/12/24 09:55:10;;;;;;;8.35;1.95;;;6.60;89.20;;;;;;4974108;28;20097;-76
2020/12/24 09:57:36;;;;;;;10.48;1.40;;;7.00;89.70;;;;;;4973038;28;20041;-72
2020/12/24 10:00:07;;;;;;;15.63;1.92;;;6.70;88.10;;;;;;4967983;28;20067;-71
2020/12/24 10:02:32;;;;;;;10.48;1.63;;;6.70;88.50;;;;;;4970905;28;20453;-71
2020/12/24 10:04:59;;;;;;;18.90;1.60;;;6.80;88.30;;;;;;4973595;28;20821;-71
2020/12/24 10:07:25;;;;;;;19.65;2.00;;;6.70;88.50;;;;;;4973815;28;20039;-70
2020/12/24 10:09:52;;;;;;;16.92;1.63;;;6.90;88.50;;;;;;4974212;28;20054;-70
2020/12/24 10:12:22;;;;;;;12.32;1.77;;;6.80;88.70;;;;;;4973875;28;20122;-71
2020/12/24 10:14:48;;;;;;;15.50;2.13;;;6.80;88.40;;;;;;4973959;28;20480;-70
2020/12/24 10:17:14;;;;;;;18.48;2.00;;;6.80;88.60;;;;;;4973595;28;20035;-71
2020/12/24 10:19:43;;;;;;;11.02;2.17;;;6.90;88.60;;;;;;4973638;28;20045;-70
2020/12/24 10:22:13;;;;;;;15.30;2.88;;;6.90;88.90;;;;;;4973739;28;20039;-70
2020/12/24 10:24:40;;;;;;;17.48;2.15;;;6.90;89.00;;;;;;4967699;28;20034;-70
2020/12/24 10:27:07;;;;;;;12.93;1.60;;;6.90;89.50;;;;;;4973652;28;20132;-70
2020/12/24 10:29:33;;;;;;;11.27;1.67;;;6.90;90.00;;;;;;4973651;28;20034;-70
2020/12/24 10:31:59;;;;;;;14.75;1.92;;;6.90;89.60;;;;;;4973390;28;20051;-74
2020/12/24 10:34:25;;;;;;;12.43;1.60;;;7.00;89.60;;;;;;4972484;28;20047;-74
2020/12/24 10:36:51;;;;;;;12.52;2.10;;;6.90;88.00;;;;;;4972949;28;20115;-74
2020/12/24 10:39:17;;;;;;;16.95;2.08;;;7.10;87.80;;;;;;4973778;28;20031;-74
2020/12/24 10:41:49;;;;;;;12.38;2.00;;;6.90;88.00;;;;;;4973360;28;20042;-74
2020/12/24 10:44:14;;;;;;;13.00;1.80;;;6.90;88.60;;;;;;4973767;28;20041;-74
2020/12/24 10:46:40;;;;;;;13.23;2.20;;;7.00;88.60;;;;;;4971251;28;20039;-71
2020/12/24 10:49:07;;;;;;;9.63;1.80;;;6.90;88.60;;;;;;4972475;28;20138;-73
2020/12/24 10:51:33;;;;;;;8.30;2.00;;;6.90;88.80;;;;;;4970864;28;20050;-71
2020/12/24 10:53:59;;;;;;;9.95;1.70;;;7.00;89.20;;;;;;4973462;28;20123;-76
2020/12/24 10:56:25;;;;;;;13.80;2.22;;;7.00;89.50;;;;;;4972787;28;20385;-75
2020/12/24 10:58:51;;;;;;;13.80;2.38;;;7.00;89.40;;;;;;4973244;28;20039;-75
2020/12/24 11:01:18;;;;;;;12.80;2.15;;;6.90;88.40;;;;;;4972439;28;20093;-75
2020/12/24 11:03:45;;;;;;;11.68;2.13;;;7.00;89.00;;;;;;4973364;28;20057;-75
2020/12/24 11:06:22;;;;;;;14.45;2.00;;;7.00;89.70;;;;;;4973414;28;20148;-75
2020/12/24 11:08:49;;;;;;;10.52;1.77;;;6.90;87.20;;;;;;4973642;28;20046;-75
2020/12/24 11:11:16;;;;;;;14.75;1.90;;;6.90;87.10;;;;;;4988385;28;20049;-75
2020/12/24 11:13:42;;;;;;;12.25;2.20;;;7.00;88.50;;;;;;4973523;28;20093;-75
2020/12/24 11:16:09;;;;;;;11.48;1.83;;;6.90;88.30;;;;;;4973456;28;20031;-75
2020/12/24 11:18:37;;;;;;;16.80;2.53;;;6.90;89.20;;;;;;4973558;28;20058;-75
2020/12/24 11:21:04;;;;;;;14.05;2.00;;;6.90;86.80;;;;;;4973383;28;20057;-75
2020/12/24 11:23:30;;;;;;;12.18;1.75;;;7.10;87.70;;;;;;4973529;28;20085;-75
2020/12/24 11:25:56;;;;;;;14.40;2.15;;;6.90;87.90;;;;;;4973376;28;20043;-75
2020/12/24 11:28:22;;;;;;;20.08;2.58;;;6.90;88.40;;;;;;4972186;28;20046;-75
2020/12/24 11:30:47;;;;;;;15.43;2.20;;;7.40;89.50;;;;;;4940254;28;20089;-75
2020/12/24 11:33:13;;;;;;;12.80;1.75;;;7.00;88.90;;;;;;4973688;28;20030;-75
2020/12/24 11:35:39;;;;;;;11.20;1.90;;;7.20;88.60;;;;;;4973362;28;20043;-75
2020/12/24 11:38:05;;;;;;;14.20;2.03;;;7.30;88.30;;;;;;4973396;28;20458;-75
2020/12/24 11:40:30;;;;;;;15.05;2.47;;;8.00;88.90;;;;;;4973297;28;20065;-75
2020/12/24 11:42:56;;;;;;;12.02;2.28;;;7.10;88.30;;;;;;4973284;28;20046;-75
2020/12/24 11:45:22;;;;;;;13.02;1.85;;;6.50;88.10;;;;;;4959009;28;20062;-75
2020/12/24 11:47:48;;;;;;;12.40;2.15;;;7.10;88.60;;;;;;4975632;28;20038;-75
2020/12/24 11:50:14;;;;;;;17.05;2.10;;;7.10;88.50;;;;;;4975426;28;20047;-75
2020/12/24 11:52:40;;;;;;;14.45;2.50;;;7.70;88.80;;;;;;4977062;28;20038;-75
2020/12/24 11:55:06;;;;;;;12.07;1.92;;;7.10;88.60;;;;;;4976600;28;20546;-75
2020/12/24 11:57:32;;;;;;;10.43;1.75;;;7.10;88.50;;;;;;4976512;28;20035;-75
2020/12/24 11:59:58;;;;;;;10.18;2.17;;;8.10;87.60;;;;;;4976540;28;20109;-75
2020/12/24 12:02:24;;;;;;;6.78;1.83;;;7.80;87.60;;;;;;4976415;28;20496;-75
2020/12/24 12:04:50;;;;;;;14.35;2.00;;;7.10;88.00;;;;;;4976359;28;20042;-75
2020/12/24 12:07:15;;;;;;;9.48;1.98;;;7.10;87.20;;;;;;4976258;28;20057;-75
2020/12/24 12:09:42;;;;;;;11.45;1.67;;;7.10;87.80;;;;;;4976398;28;20069;-75
2020/12/24 12:12:11;;;;;;;8.07;1.40;;;7.00;87.70;;;;;;4991223;28;20035;-75
2020/12/24 12:14:36;;;;;;;9.13;1.30;;;7.10;88.30;;;;;;4958999;28;20046;-75
2020/12/24 12:17:02;;;;;;;10.88;1.67;;;7.10;88.60;;;;;;4976252;28;20039;-75
2020/12/24 12:19:30;;;;;;;14.93;1.75;;;7.10;88.60;;;;;;4976243;28;20031;-75
2020/12/24 12:21:56;;;;;;;6.97;1.77;;;7.10;86.50;;;;;;4987653;28;20039;-75
2020/12/24 12:24:22;;;;;;;13.48;1.70;;;7.10;88.10;;;;;;4978006;28;20037;-75
2020/12/24 12:26:48;;;;;;;14.95;1.83;;;7.10;88.00;;;;;;4975970;28;20099;-75
2020/12/24 12:29:15;;;;;;;10.00;1.73;;;7.10;87.20;;;;;;4975793;28;20046;-75
2020/12/24 12:31:41;;;;;;;11.82;1.75;;;7.10;87.60;;;;;;4976000;28;20042;-75
2020/12/24 12:34:06;;;;;;;9.10;1.70;;;7.10;86.90;;;;;;4958860;28;20448;-75
2020/12/24 12:36:32;;;;;;;9.75;1.80;;;7.10;86.20;;;;;;4991093;28;20050;-75
2020/12/24 12:38:58;;;;;;;14.35;1.75;;;7.10;86.30;;;;;;4975860;28;20388;-75
2020/12/24 12:41:24;;;;;;;11.88;2.33;;;7.10;85.90;;;;;;4975631;28;20043;-75
2020/12/24 12:43:50;;;;;;;15.02;2.60;;;8.00;87.30;;;;;;4990766;28;20046;-75
2020/12/24 12:46:23;;;;;;;10.20;1.63;;;7.20;86.00;;;;;;4975787;28;20049;-75
2020/12/24 12:48:49;;;;;;;11.80;2.10;;;7.20;85.40;;;;;;4975721;28;20043;-75
2020/12/24 12:51:15;;;;;;;9.65;1.70;;;7.20;85.40;;;;;;4975655;28;20038;-75
2020/12/24 12:53:41;;;;;;;10.13;1.90;;;7.10;86.70;;;;;;4990454;28;20059;-75
2020/12/24 12:56:11;;;;;;;20.52;1.85;;;7.20;87.30;;;;;;4990207;28;20038;-75